sensor_id;sensor_type;location;lat;lon;timestamp;pressure;altitude;pressure_sealevel;temperature;humidity
28588;BME280;15787;49.662;10.162;2023-03-26T00:00:17;98480.00;;;7.82;96.38
28588;BME280;15787;49.662;10.162;2023-03-26T00:02:51;98485.75;;;7.71;96.48
28588;BME280;15787;49.662;10.162;2023-03-26T00:05:24;98488.97;;;7.70;96.38
28588;BME280;15787;49.662;10.162;2023-03-26T00:07:57;98488.25;;;7.65;96.56
28588;BME280;15787;49.662;10.162;2023-03-26T00:10:31;98496.47;;;7.73;96.54
28588;BME280;15787;49.662;10.162;2023-03-26T00:13:05;98489.53;;;7.61;96.46
28588;BME280;15787;49.662;10.162;2023-03-26T00:15:38;98493.38;;;7.67;96.66
28588;BME280;15787;49.662;10.162;2023-03-26T00:18:13;98497.84;;;7.61;97.21
28588;BME280;15787;49.662;10.162;2023-03-26T00:20:46;98501.03;;;7.83;96.45
28588;BME280;15787;49.662;10.162;2023-03-26T00:23:19;98497.81;;;7.64;96.23
28588;BME280;15787;49.662;10.162;2023-03-26T00:25:52;98491.44;;;7.64;96.72
28588;BME280;15787;49.662;10.162;2023-03-26T00:28:27;98490.78;;;7.80;96.71
28588;BME280;15787;49.662;10.162;2023-03-26T00:31:03;98492.31;;;7.81;97.02
28588;BME280;15787;49.662;10.162;2023-03-26T00:33:39;98486.69;;;8.04;96.03
28588;BME280;15787;49.662;10.162;2023-03-26T00:36:14;98480.66;;;7.89;95.50
28588;BME280;15787;49.662;10.162;2023-03-26T00:38:48;98485.66;;;7.98;95.80
28588;BME280;15787;49.662;10.162;2023-03-26T00:41:24;98486.50;;;7.95;96.08
28588;BME280;15787;49.662;10.162;2023-03-26T00:44:01;98492.34;;;8.00;95.68
28588;BME280;15787;49.662;10.162;2023-03-26T00:46:35;98496.63;;;7.85;95.94
28588;BME280;15787;49.662;10.162;2023-03-26T00:49:09;98494.41;;;7.96;95.64
28588;BME280;15787;49.662;10.162;2023-03-26T00:51:45;98486.66;;;8.07;95.71
28588;BME280;15787;49.662;10.162;2023-03-26T00:54:18;98475.09;;;7.89;95.84
28588;BME280;15787;49.662;10.162;2023-03-26T00:56:51;98481.66;;;7.99;95.89
28588;BME280;15787;49.662;10.162;2023-03-26T00:59:26;98489.63;;;7.97;95.94
28588;BME280;15787;49.662;10.162;2023-03-26T01:02:01;98484.06;;;7.97;96.05
28588;BME280;15787;49.662;10.162;2023-03-26T01:04:36;98488.03;;;7.76;96.35
28588;BME280;15787;49.662;10.162;2023-03-26T01:07:12;98485.22;;;7.80;97.11
28588;BME280;15787;49.662;10.162;2023-03-26T01:09:48;98486.56;;;7.91;96.86
28588;BME280;15787;49.662;10.162;2023-03-26T01:12:24;98483.28;;;7.77;97.58
28588;BME280;15787;49.662;10.162;2023-03-26T01:14:59;98487.19;;;7.79;97.94
28588;BME280;15787;49.662;10.162;2023-03-26T01:17:34;98470.53;;;7.79;98.24
28588;BME280;15787;49.662;10.162;2023-03-26T01:20:12;98472.81;;;7.84;97.84
28588;BME280;15787;49.662;10.162;2023-03-26T01:22:49;98471.88;;;7.71;98.37
28588;BME280;15787;49.662;10.162;2023-03-26T01:25:27;98466.00;;;7.65;98.70
28588;BME280;15787;49.662;10.162;2023-03-26T01:28:05;98472.94;;;7.77;98.42
28588;BME280;15787;49.662;10.162;2023-03-26T01:30:49;98462.03;;;7.67;97.58
28588;BME280;15787;49.662;10.162;2023-03-26T01:33:28;98467.59;;;7.67;97.45
28588;BME280;15787;49.662;10.162;2023-03-26T01:36:10;98463.16;;;7.49;97.74
28588;BME280;15787;49.662;10.162;2023-03-26T01:38:50;98460.72;;;7.51;98.09
28588;BME280;15787;49.662;10.162;2023-03-26T01:41:29;98464.41;;;7.45;98.01
28588;BME280;15787;49.662;10.162;2023-03-26T01:44:08;98452.09;;;7.46;98.56
28588;BME280;15787;49.662;10.162;2023-03-26T01:46:44;98450.47;;;7.48;98.29
28588;BME280;15787;49.662;10.162;2023-03-26T01:49:18;98447.03;;;7.41;98.38
28588;BME280;15787;49.662;10.162;2023-03-26T01:51:51;98440.50;;;7.28;99.04
28588;BME280;15787;49.662;10.162;2023-03-26T01:54:27;98433.16;;;7.18;99.57
28588;BME280;15787;49.662;10.162;2023-03-26T01:57:08;98431.38;;;7.50;98.76
28588;BME280;15787;49.662;10.162;2023-03-26T01:59:55;98421.25;;;7.40;98.60
28588;BME280;15787;49.662;10.162;2023-03-26T02:02:58;98426.94;;;7.33;99.25
28588;BME280;15787;49.662;10.162;2023-03-26T02:05:36;98426.94;;;7.33;98.87
28588;BME280;15787;49.662;10.162;2023-03-26T02:08:32;98424.78;;;7.21;98.78
28588;BME280;15787;49.662;10.162;2023-03-26T02:11:10;98414.03;;;7.23;98.49
28588;BME280;15787;49.662;10.162;2023-03-26T02:13:46;98411.56;;;7.29;98.99
28588;BME280;15787;49.662;10.162;2023-03-26T02:16:19;98406.25;;;7.15;98.80
28588;BME280;15787;49.662;10.162;2023-03-26T02:18:52;98409.56;;;7.29;99.18
28588;BME280;15787;49.662;10.162;2023-03-26T02:21:26;98394.72;;;7.16;99.69
28588;BME280;15787;49.662;10.162;2023-03-26T02:24:00;98401.16;;;7.10;99.67
28588;BME280;15787;49.662;10.162;2023-03-26T02:26:39;98402.44;;;7.05;100.00
28588;BME280;15787;49.662;10.162;2023-03-26T02:29:17;98395.22;;;7.11;100.00
28588;BME280;15787;49.662;10.162;2023-03-26T02:31:52;98389.19;;;7.16;100.00
28588;BME280;15787;49.662;10.162;2023-03-26T02:34:25;98389.09;;;7.20;100.00
28588;BME280;15787;49.662;10.162;2023-03-26T02:36:58;98379.56;;;7.21;100.00
28588;BME280;15787;49.662;10.162;2023-03-26T02:39:31;98365.91;;;7.30;99.81
28588;BME280;15787;49.662;10.162;2023-03-26T02:42:11;98376.28;;;7.06;99.86
28588;BME280;15787;49.662;10.162;2023-03-26T02:44:52;98375.16;;;7.23;99.67
28588;BME280;15787;49.662;10.162;2023-03-26T02:47:44;98372.88;;;7.18;99.25
28588;BME280;15787;49.662;10.162;2023-03-26T02:50:35;98374.19;;;7.10;99.55
28588;BME280;15787;49.662;10.162;2023-03-26T02:53:41;98367.84;;;7.10;99.60
28588;BME280;15787;49.662;10.162;2023-03-26T02:56:36;98369.94;;;7.06;99.44
28588;BME280;15787;49.662;10.162;2023-03-26T02:59:27;98371.53;;;7.26;99.00
28588;BME280;15787;49.662;10.162;2023-03-26T03:02:24;98368.50;;;7.17;99.20
28588;BME280;15787;49.662;10.162;2023-03-26T03:05:07;98366.97;;;7.16;98.57
28588;BME280;15787;49.662;10.162;2023-03-26T03:07:40;98368.47;;;7.21;98.22
28588;BME280;15787;49.662;10.162;2023-03-26T03:10:13;98358.63;;;6.73;98.86
28588;BME280;15787;49.662;10.162;2023-03-26T03:13:04;98353.59;;;6.88;98.89
28588;BME280;15787;49.662;10.162;2023-03-26T03:15:38;98363.72;;;6.75;100.00
28588;BME280;15787;49.662;10.162;2023-03-26T03:18:12;98359.84;;;6.69;100.00
28588;BME280;15787;49.662;10.162;2023-03-26T03:20:46;98357.81;;;6.96;100.00
28588;BME280;15787;49.662;10.162;2023-03-26T03:23:19;98361.66;;;6.79;99.52
28588;BME280;15787;49.662;10.162;2023-03-26T03:25:56;98359.16;;;6.88;99.97
28588;BME280;15787;49.662;10.162;2023-03-26T03:28:29;98364.50;;;6.75;99.16
28588;BME280;15787;49.662;10.162;2023-03-26T03:31:02;98359.38;;;6.51;100.00
28588;BME280;15787;49.662;10.162;2023-03-26T03:33:38;98360.41;;;6.33;100.00
28588;BME280;15787;49.662;10.162;2023-03-26T03:36:16;98359.53;;;6.40;100.00
28588;BME280;15787;49.662;10.162;2023-03-26T03:38:53;98353.84;;;6.51;100.00
28588;BME280;15787;49.662;10.162;2023-03-26T03:41:27;98360.63;;;6.46;100.00
28588;BME280;15787;49.662;10.162;2023-03-26T03:44:01;98361.78;;;6.49;100.00
28588;BME280;15787;49.662;10.162;2023-03-26T03:46:36;98355.31;;;6.32;100.00
28588;BME280;15787;49.662;10.162;2023-03-26T03:49:10;98340.50;;;6.42;100.00
28588;BME280;15787;49.662;10.162;2023-03-26T03:51:43;98348.38;;;6.44;100.00
28588;BME280;15787;49.662;10.162;2023-03-26T03:54:25;98345.75;;;6.60;100.00
28588;BME280;15787;49.662;10.162;2023-03-26T03:57:31;98342.25;;;6.79;100.00
28588;BME280;15787;49.662;10.162;2023-03-26T04:00:10;98340.81;;;6.71;100.00
28588;BME280;15787;49.662;10.162;2023-03-26T04:02:46;98344.59;;;6.80;100.00
28588;BME280;15787;49.662;10.162;2023-03-26T04:05:21;98335.66;;;6.92;100.00
28588;BME280;15787;49.662;10.162;2023-03-26T04:07:55;98333.06;;;6.82;100.00
28588;BME280;15787;49.662;10.162;2023-03-26T04:10:31;98342.44;;;6.91;100.00
28588;BME280;15787;49.662;10.162;2023-03-26T04:13:16;98340.03;;;6.93;100.00
28588;BME280;15787;49.662;10.162;2023-03-26T04:16:13;98329.91;;;6.83;100.00
28588;BME280;15787;49.662;10.162;2023-03-26T04:18:48;98324.75;;;6.82;100.00
28588;BME280;15787;49.662;10.162;2023-03-26T04:21:23;98326.38;;;6.79;100.00
28588;BME280;15787;49.662;10.162;2023-03-26T04:23:57;98325.78;;;6.91;100.00
28588;BME280;15787;49.662;10.162;2023-03-26T04:26:52;98327.84;;;7.07;100.00
28588;BME280;15787;49.662;10.162;2023-03-26T04:29:33;98324.44;;;6.76;100.00
28588;BME280;15787;49.662;10.162;2023-03-26T04:32:21;98320.53;;;6.74;100.00
28588;BME280;15787;49.662;10.162;2023-03-26T04:34:58;98313.78;;;6.75;100.00
28588;BME280;15787;49.662;10.162;2023-03-26T04:37:37;98317.38;;;6.95;100.00
28588;BME280;15787;49.662;10.162;2023-03-26T04:40:20;98313.66;;;6.82;100.00
28588;BME280;15787;49.662;10.162;2023-03-26T04:43:04;98302.16;;;6.83;100.00
28588;BME280;15787;49.662;10.162;2023-03-26T04:45:55;98300.59;;;6.59;100.00
28588;BME280;15787;49.662;10.162;2023-03-26T04:48:31;98301.41;;;6.79;100.00
28588;BME280;15787;49.662;10.162;2023-03-26T04:51:04;98295.44;;;6.81;100.00
28588;BME280;15787;49.662;10.162;2023-03-26T04:53:42;98303.50;;;6.95;100.00
28588;BME280;15787;49.662;10.162;2023-03-26T04:56:50;98295.25;;;6.91;100.00
28588;BME280;15787;49.662;10.162;2023-03-26T04:59:33;98289.13;;;6.80;100.00
28588;BME280;15787;49.662;10.162;2023-03-26T05:02:11;98277.38;;;6.73;100.00
28588;BME280;15787;49.662;10.162;2023-03-26T05:04:52;98271.53;;;6.87;100.00
28588;BME280;15787;49.662;10.162;2023-03-26T05:07:30;98259.59;;;6.90;100.00
28588;BME280;15787;49.662;10.162;2023-03-26T05:10:07;98253.25;;;6.89;100.00
28588;BME280;15787;49.662;10.162;2023-03-26T05:12:52;98249.44;;;7.03;100.00
28588;BME280;15787;49.662;10.162;2023-03-26T05:15:29;98244.22;;;7.05;100.00
28588;BME280;15787;49.662;10.162;2023-03-26T05:18:12;98240.06;;;7.17;100.00
28588;BME280;15787;49.662;10.162;2023-03-26T05:20:48;98241.91;;;7.04;100.00
28588;BME280;15787;49.662;10.162;2023-03-26T05:23:22;98230.19;;;7.12;100.00
28588;BME280;15787;49.662;10.162;2023-03-26T05:26:07;98231.28;;;7.18;99.55
28588;BME280;15787;49.662;10.162;2023-03-26T05:28:41;98228.22;;;6.93;99.36
28588;BME280;15787;49.662;10.162;2023-03-26T05:31:21;98216.00;;;6.48;100.00
28588;BME280;15787;49.662;10.162;2023-03-26T05:33:58;98204.69;;;7.01;100.00
28588;BME280;15787;49.662;10.162;2023-03-26T05:36:32;98203.94;;;6.97;100.00
28588;BME280;15787;49.662;10.162;2023-03-26T05:39:35;98203.75;;;6.88;100.00
28588;BME280;15787;49.662;10.162;2023-03-26T05:42:22;98195.34;;;6.72;100.00
28588;BME280;15787;49.662;10.162;2023-03-26T05:45:14;98188.28;;;6.87;100.00
28588;BME280;15787;49.662;10.162;2023-03-26T05:47:47;98184.16;;;7.15;100.00
28588;BME280;15787;49.662;10.162;2023-03-26T05:50:22;98177.97;;;7.07;100.00
28588;BME280;15787;49.662;10.162;2023-03-26T05:53:00;98181.03;;;7.13;100.00
28588;BME280;15787;49.662;10.162;2023-03-26T05:55:55;98168.84;;;7.26;100.00
28588;BME280;15787;49.662;10.162;2023-03-26T05:58:49;98179.41;;;6.95;100.00
28588;BME280;15787;49.662;10.162;2023-03-26T06:01:41;98167.88;;;7.17;100.00
28588;BME280;15787;49.662;10.162;2023-03-26T06:04:34;98160.16;;;7.24;100.00
28588;BME280;15787;49.662;10.162;2023-03-26T06:07:37;98150.88;;;7.31;100.00
28588;BME280;15787;49.662;10.162;2023-03-26T06:10:14;98147.44;;;7.07;100.00
28588;BME280;15787;49.662;10.162;2023-03-26T06:12:50;98131.41;;;7.15;100.00
28588;BME280;15787;49.662;10.162;2023-03-26T06:15:24;98133.16;;;7.25;100.00
28588;BME280;15787;49.662;10.162;2023-03-26T06:18:03;98129.75;;;7.01;100.00
28588;BME280;15787;49.662;10.162;2023-03-26T06:20:36;98125.88;;;6.95;100.00
28588;BME280;15787;49.662;10.162;2023-03-26T06:23:17;98129.41;;;7.15;100.00
28588;BME280;15787;49.662;10.162;2023-03-26T06:26:09;98120.69;;;7.17;100.00
28588;BME280;15787;49.662;10.162;2023-03-26T06:29:11;98101.69;;;7.31;100.00
28588;BME280;15787;49.662;10.162;2023-03-26T06:32:04;98107.66;;;7.14;100.00
28588;BME280;15787;49.662;10.162;2023-03-26T06:35:00;98119.16;;;6.96;100.00
28588;BME280;15787;49.662;10.162;2023-03-26T06:37:33;98110.59;;;7.23;100.00
28588;BME280;15787;49.662;10.162;2023-03-26T06:40:07;98119.38;;;7.21;100.00
28588;BME280;15787;49.662;10.162;2023-03-26T06:43:12;98120.31;;;7.15;100.00
28588;BME280;15787;49.662;10.162;2023-03-26T06:46:04;98109.69;;;7.29;100.00
28588;BME280;15787;49.662;10.162;2023-03-26T06:48:39;98096.66;;;7.42;100.00
28588;BME280;15787;49.662;10.162;2023-03-26T06:51:22;98103.84;;;7.24;100.00
28588;BME280;15787;49.662;10.162;2023-03-26T06:54:16;98094.38;;;7.21;100.00
28588;BME280;15787;49.662;10.162;2023-03-26T06:57:12;98097.69;;;7.32;100.00
28588;BME280;15787;49.662;10.162;2023-03-26T06:59:54;98092.75;;;7.40;100.00
28588;BME280;15787;49.662;10.162;2023-03-26T07:02:46;98090.84;;;7.37;100.00
28588;BME280;15787;49.662;10.162;2023-03-26T07:05:59;98076.94;;;7.53;100.00
28588;BME280;15787;49.662;10.162;2023-03-26T07:08:58;98080.84;;;7.55;100.00
28588;BME280;15787;49.662;10.162;2023-03-26T07:11:49;98082.97;;;7.68;100.00
28588;BME280;15787;49.662;10.162;2023-03-26T07:14:41;98083.72;;;7.68;100.00
28588;BME280;15787;49.662;10.162;2023-03-26T07:17:40;98085.63;;;7.87;100.00
28588;BME280;15787;49.662;10.162;2023-03-26T07:20:18;98078.47;;;8.02;100.00
28588;BME280;15787;49.662;10.162;2023-03-26T07:22:54;98075.75;;;8.15;100.00
28588;BME280;15787;49.662;10.162;2023-03-26T07:25:57;98076.75;;;8.08;100.00
28588;BME280;15787;49.662;10.162;2023-03-26T07:28:58;98065.66;;;8.21;100.00
28588;BME280;15787;49.662;10.162;2023-03-26T07:31:57;98063.22;;;8.23;99.68
28588;BME280;15787;49.662;10.162;2023-03-26T07:34:55;98050.50;;;8.38;99.62
28588;BME280;15787;49.662;10.162;2023-03-26T07:37:49;98048.88;;;8.24;99.09
28588;BME280;15787;49.662;10.162;2023-03-26T07:40:53;98031.38;;;8.40;99.30
28588;BME280;15787;49.662;10.162;2023-03-26T07:47:28;98026.69;;;8.37;98.72
28588;BME280;15787;49.662;10.162;2023-03-26T07:50:20;98019.63;;;8.49;99.44
28588;BME280;15787;49.662;10.162;2023-03-26T07:53:06;98012.66;;;8.69;99.44
28588;BME280;15787;49.662;10.162;2023-03-26T07:56:00;98013.94;;;8.65;99.16
28588;BME280;15787;49.662;10.162;2023-03-26T07:59:03;98015.72;;;8.46;100.00
28588;BME280;15787;49.662;10.162;2023-03-26T08:02:30;98003.22;;;8.38;100.00
28588;BME280;15787;49.662;10.162;2023-03-26T08:05:23;98007.28;;;8.62;100.00
28588;BME280;15787;49.662;10.162;2023-03-26T08:08:22;98000.72;;;8.56;100.00
28588;BME280;15787;49.662;10.162;2023-03-26T08:11:28;97995.56;;;8.42;100.00
28588;BME280;15787;49.662;10.162;2023-03-26T08:14:15;97990.19;;;8.35;100.00
28588;BME280;15787;49.662;10.162;2023-03-26T08:16:53;98001.13;;;8.42;100.00
28588;BME280;15787;49.662;10.162;2023-03-26T08:19:36;97994.75;;;8.42;100.00
28588;BME280;15787;49.662;10.162;2023-03-26T08:22:16;97992.97;;;8.35;100.00
28588;BME280;15787;49.662;10.162;2023-03-26T08:25:02;97991.78;;;8.36;100.00
28588;BME280;15787;49.662;10.162;2023-03-26T08:27:41;97985.31;;;8.39;100.00
28588;BME280;15787;49.662;10.162;2023-03-26T08:30:18;97979.00;;;8.39;100.00
28588;BME280;15787;49.662;10.162;2023-03-26T08:32:54;97986.66;;;8.47;100.00
28588;BME280;15787;49.662;10.162;2023-03-26T08:35:28;97979.97;;;8.45;100.00
28588;BME280;15787;49.662;10.162;2023-03-26T08:38:01;97974.53;;;8.41;100.00
28588;BME280;15787;49.662;10.162;2023-03-26T08:41:08;97978.78;;;8.58;100.00
28588;BME280;15787;49.662;10.162;2023-03-26T08:44:05;97979.09;;;8.48;100.00
28588;BME280;15787;49.662;10.162;2023-03-26T08:47:03;97973.22;;;8.46;100.00
28588;BME280;15787;49.662;10.162;2023-03-26T08:49:58;97966.53;;;8.14;100.00
28588;BME280;15787;49.662;10.162;2023-03-26T08:53:15;97953.91;;;8.26;100.00
28588;BME280;15787;49.662;10.162;2023-03-26T08:55:51;97953.91;;;8.26;100.00
28588;BME280;15787;49.662;10.162;2023-03-26T08:59:05;97955.91;;;8.25;100.00
28588;BME280;15787;49.662;10.162;2023-03-26T09:05:22;97934.59;;;8.35;100.00
28588;BME280;15787;49.662;10.162;2023-03-26T09:14:49;97927.53;;;8.18;100.00
28588;BME280;15787;49.662;10.162;2023-03-26T09:18:04;97923.38;;;8.10;100.00
28588;BME280;15787;49.662;10.162;2023-03-26T09:20:59;97920.28;;;8.20;100.00
28588;BME280;15787;49.662;10.162;2023-03-26T09:23:58;97922.88;;;8.27;100.00
28588;BME280;15787;49.662;10.162;2023-03-26T09:26:46;97924.63;;;8.21;100.00
28588;BME280;15787;49.662;10.162;2023-03-26T09:33:28;97922.75;;;8.18;100.00
28588;BME280;15787;49.662;10.162;2023-03-26T09:36:22;97915.16;;;8.19;100.00
28588;BME280;15787;49.662;10.162;2023-03-26T09:39:08;97916.28;;;8.21;100.00
28588;BME280;15787;49.662;10.162;2023-03-26T09:41:51;97921.09;;;8.21;100.00
28588;BME280;15787;49.662;10.162;2023-03-26T09:44:41;97908.84;;;8.18;100.00
28588;BME280;15787;49.662;10.162;2023-03-26T09:47:39;97915.16;;;8.19;100.00
28588;BME280;15787;49.662;10.162;2023-03-26T09:50:51;97918.94;;;8.12;100.00
28588;BME280;15787;49.662;10.162;2023-03-26T09:53:48;97917.28;;;8.15;100.00
28588;BME280;15787;49.662;10.162;2023-03-26T09:56:30;97919.03;;;8.09;100.00
28588;BME280;15787;49.662;10.162;2023-03-26T09:59:27;97910.94;;;8.14;100.00
28588;BME280;15787;49.662;10.162;2023-03-26T10:02:17;97917.56;;;8.33;100.00
28588;BME280;15787;49.662;10.162;2023-03-26T10:05:24;97911.13;;;8.36;100.00
28588;BME280;15787;49.662;10.162;2023-03-26T10:08:18;97907.66;;;8.32;100.00
28588;BME280;15787;49.662;10.162;2023-03-26T10:10:59;97911.00;;;8.52;100.00
28588;BME280;15787;49.662;10.162;2023-03-26T10:13:43;97913.78;;;8.52;100.00
28588;BME280;15787;49.662;10.162;2023-03-26T10:16:25;97900.75;;;8.49;100.00
28588;BME280;15787;49.662;10.162;2023-03-26T10:19:22;97909.88;;;8.62;100.00
28588;BME280;15787;49.662;10.162;2023-03-26T10:22:07;97911.69;;;8.56;100.00
28588;BME280;15787;49.662;10.162;2023-03-26T10:24:55;97912.00;;;8.58;100.00
28588;BME280;15787;49.662;10.162;2023-03-26T10:27:38;97915.66;;;8.30;100.00
28588;BME280;15787;49.662;10.162;2023-03-26T10:30:27;97908.09;;;8.31;100.00
28588;BME280;15787;49.662;10.162;2023-03-26T10:33:12;97908.22;;;8.52;100.00
28588;BME280;15787;49.662;10.162;2023-03-26T10:35:55;97922.88;;;8.27;100.00
28588;BME280;15787;49.662;10.162;2023-03-26T10:38:47;97913.34;;;8.29;100.00
28588;BME280;15787;49.662;10.162;2023-03-26T10:41:27;97911.94;;;8.08;100.00
28588;BME280;15787;49.662;10.162;2023-03-26T10:44:24;97909.81;;;8.12;100.00
28588;BME280;15787;49.662;10.162;2023-03-26T10:50:25;97899.31;;;8.32;100.00
28588;BME280;15787;49.662;10.162;2023-03-26T10:53:03;97898.59;;;8.15;100.00
28588;BME280;15787;49.662;10.162;2023-03-26T10:55:43;97898.16;;;8.17;100.00
28588;BME280;15787;49.662;10.162;2023-03-26T10:58:23;97901.81;;;8.14;100.00
28588;BME280;15787;49.662;10.162;2023-03-26T11:01:00;97897.50;;;8.25;100.00
28588;BME280;15787;49.662;10.162;2023-03-26T11:03:45;97895.75;;;8.32;100.00
28588;BME280;15787;49.662;10.162;2023-03-26T11:06:36;97895.53;;;8.39;100.00
28588;BME280;15787;49.662;10.162;2023-03-26T11:09:23;97907.84;;;8.25;100.00
28588;BME280;15787;49.662;10.162;2023-03-26T11:12:04;97905.41;;;8.27;100.00
28588;BME280;15787;49.662;10.162;2023-03-26T11:15:10;97908.97;;;8.27;100.00
28588;BME280;15787;49.662;10.162;2023-03-26T11:17:55;97914.66;;;8.49;100.00
28588;BME280;15787;49.662;10.162;2023-03-26T11:20:35;97908.91;;;8.44;100.00
28588;BME280;15787;49.662;10.162;2023-03-26T11:23:22;97894.06;;;8.47;100.00
28588;BME280;15787;49.662;10.162;2023-03-26T11:26:07;97895.06;;;8.78;100.00
28588;BME280;15787;49.662;10.162;2023-03-26T11:29:05;97874.94;;;8.74;100.00
28588;BME280;15787;49.662;10.162;2023-03-26T11:32:06;97875.16;;;8.54;100.00
28588;BME280;15787;49.662;10.162;2023-03-26T11:34:44;97866.63;;;8.49;100.00
28588;BME280;15787;49.662;10.162;2023-03-26T11:37:27;97860.16;;;8.64;100.00
28588;BME280;15787;49.662;10.162;2023-03-26T11:40:08;97854.13;;;9.13;100.00
28588;BME280;15787;49.662;10.162;2023-03-26T11:42:43;97847.41;;;8.88;100.00
28588;BME280;15787;49.662;10.162;2023-03-26T11:45:18;97855.53;;;9.30;100.00
28588;BME280;15787;49.662;10.162;2023-03-26T11:47:57;97856.50;;;10.23;100.00
28588;BME280;15787;49.662;10.162;2023-03-26T11:50:38;97842.25;;;10.60;100.00
28588;BME280;15787;49.662;10.162;2023-03-26T11:53:16;97843.72;;;10.92;100.00
28588;BME280;15787;49.662;10.162;2023-03-26T11:55:54;97826.19;;;10.92;99.21
28588;BME280;15787;49.662;10.162;2023-03-26T11:58:32;97834.94;;;11.30;97.44
28588;BME280;15787;49.662;10.162;2023-03-26T12:01:12;97829.34;;;11.75;97.09
28588;BME280;15787;49.662;10.162;2023-03-26T12:03:56;97810.94;;;12.11;93.86
28588;BME280;15787;49.662;10.162;2023-03-26T12:06:30;97813.31;;;11.94;94.13
28588;BME280;15787;49.662;10.162;2023-03-26T12:09:03;97819.53;;;11.89;93.55
28588;BME280;15787;49.662;10.162;2023-03-26T12:11:48;97820.63;;;11.55;90.90
28588;BME280;15787;49.662;10.162;2023-03-26T12:14:24;97822.03;;;11.32;88.75
28588;BME280;15787;49.662;10.162;2023-03-26T12:17:00;97808.06;;;11.60;89.86
28588;BME280;15787;49.662;10.162;2023-03-26T12:19:37;97810.84;;;11.60;90.69
28588;BME280;15787;49.662;10.162;2023-03-26T12:22:29;97794.56;;;11.40;90.98
28588;BME280;15787;49.662;10.162;2023-03-26T12:25:17;97789.56;;;11.89;91.75
28588;BME280;15787;49.662;10.162;2023-03-26T12:27:58;97778.00;;;12.05;89.33
28588;BME280;15787;49.662;10.162;2023-03-26T12:30:34;97771.53;;;12.32;85.78
28588;BME280;15787;49.662;10.162;2023-03-26T12:33:14;97779.13;;;12.64;83.99
28588;BME280;15787;49.662;10.162;2023-03-26T12:35:50;97764.41;;;12.22;84.01
28588;BME280;15787;49.662;10.162;2023-03-26T12:38:30;97763.50;;;12.16;83.87
28588;BME280;15787;49.662;10.162;2023-03-26T12:41:06;97768.31;;;12.16;83.39
28588;BME280;15787;49.662;10.162;2023-03-26T12:44:21;97781.50;;;11.73;83.13
28588;BME280;15787;49.662;10.162;2023-03-26T12:47:17;97770.47;;;11.70;83.04
28588;BME280;15787;49.662;10.162;2023-03-26T12:50:12;97767.56;;;11.46;82.48
28588;BME280;15787;49.662;10.162;2023-03-26T12:53:05;97759.16;;;11.37;83.17
28588;BME280;15787;49.662;10.162;2023-03-26T12:55:52;97754.63;;;11.67;84.54
28588;BME280;15787;49.662;10.162;2023-03-26T12:58:37;97751.50;;;11.83;84.45
28588;BME280;15787;49.662;10.162;2023-03-26T13:01:18;97755.41;;;11.76;83.67
28588;BME280;15787;49.662;10.162;2023-03-26T13:04:11;97754.47;;;12.21;83.37
28588;BME280;15787;49.662;10.162;2023-03-26T13:06:49;97742.38;;;12.15;82.49
28588;BME280;15787;49.662;10.162;2023-03-26T13:09:42;97746.13;;;12.12;82.95
28588;BME280;15787;49.662;10.162;2023-03-26T13:12:25;97737.44;;;12.01;82.40
28588;BME280;15787;49.662;10.162;2023-03-26T13:15:11;97738.81;;;12.15;82.65
28588;BME280;15787;49.662;10.162;2023-03-26T13:17:57;97736.63;;;11.77;80.61
28588;BME280;15787;49.662;10.162;2023-03-26T13:20:49;97732.41;;;11.63;81.31
28588;BME280;15787;49.662;10.162;2023-03-26T13:23:32;97723.75;;;12.03;82.38
28588;BME280;15787;49.662;10.162;2023-03-26T13:26:16;97719.66;;;12.13;81.88
28588;BME280;15787;49.662;10.162;2023-03-26T13:29:01;97714.13;;;12.04;80.77
28588;BME280;15787;49.662;10.162;2023-03-26T13:31:41;97719.16;;;11.91;81.79
28588;BME280;15787;49.662;10.162;2023-03-26T13:34:25;97711.84;;;11.93;82.23
28588;BME280;15787;49.662;10.162;2023-03-26T13:37:08;97715.69;;;12.05;79.97
28588;BME280;15787;49.662;10.162;2023-03-26T13:39:53;97713.72;;;12.53;78.28
28588;BME280;15787;49.662;10.162;2023-03-26T13:42:39;97718.78;;;12.63;76.10
28588;BME280;15787;49.662;10.162;2023-03-26T13:45:28;97712.00;;;12.55;73.40
28588;BME280;15787;49.662;10.162;2023-03-26T13:48:11;97690.75;;;12.87;74.56
28588;BME280;15787;49.662;10.162;2023-03-26T13:50:52;97695.00;;;12.83;74.15
28588;BME280;15787;49.662;10.162;2023-03-26T13:53:33;97683.31;;;13.22;74.53
28588;BME280;15787;49.662;10.162;2023-03-26T13:56:12;97679.63;;;13.46;72.03
28588;BME280;15787;49.662;10.162;2023-03-26T13:58:51;97673.88;;;12.96;71.63
28588;BME280;15787;49.662;10.162;2023-03-26T14:01:27;97670.16;;;13.43;72.82
28588;BME280;15787;49.662;10.162;2023-03-26T14:04:12;97679.44;;;13.20;71.87
28588;BME280;15787;49.662;10.162;2023-03-26T14:06:51;97697.66;;;12.77;70.97
28588;BME280;15787;49.662;10.162;2023-03-26T14:09:29;97698.69;;;12.18;74.87
28588;BME280;15787;49.662;10.162;2023-03-26T14:12:20;97682.94;;;12.53;80.29
28588;BME280;15787;49.662;10.162;2023-03-26T14:15:01;97674.97;;;12.75;78.82
28588;BME280;15787;49.662;10.162;2023-03-26T14:17:37;97672.97;;;12.90;77.62
28588;BME280;15787;49.662;10.162;2023-03-26T14:20:42;97675.50;;;13.41;77.77
28588;BME280;15787;49.662;10.162;2023-03-26T14:24:00;97665.91;;;13.33;75.87
28588;BME280;15787;49.662;10.162;2023-03-26T14:26:52;97673.47;;;13.42;73.50
28588;BME280;15787;49.662;10.162;2023-03-26T14:29:39;97654.50;;;13.80;71.83
28588;BME280;15787;49.662;10.162;2023-03-26T14:32:41;97654.59;;;13.71;71.05
28588;BME280;15787;49.662;10.162;2023-03-26T14:35:31;97662.13;;;13.80;70.27
28588;BME280;15787;49.662;10.162;2023-03-26T14:38:32;97648.84;;;13.95;69.38
28588;BME280;15787;49.662;10.162;2023-03-26T14:41:18;97648.88;;;14.15;70.18